地図

経路データ

SID SEASON NUMBER BASIN SUBBASIN NAME ISO_TIME NATURE LAT LON WMO_WIND WMO_PRES WMO_AGENCY TRACK_TYPE DIST2LAND LANDFALL IFLAG USA_AGENCY USA_ATCF_ID USA_LAT USA_LON USA_RECORD USA_STATUS USA_WIND USA_PRES USA_SSHS USA_R34_NE USA_R34_SE USA_R34_SW USA_R34_NW USA_R50_NE USA_R50_SE USA_R50_SW USA_R50_NW USA_R64_NE USA_R64_SE USA_R64_SW USA_R64_NW USA_POCI USA_ROCI USA_RMW USA_EYE TOKYO_LAT TOKYO_LON TOKYO_GRADE TOKYO_WIND TOKYO_PRES TOKYO_R50_DIR TOKYO_R50_LONG TOKYO_R50_SHORT TOKYO_R30_DIR TOKYO_R30_LONG TOKYO_R30_SHORT TOKYO_LAND CMA_LAT CMA_LON CMA_CAT CMA_WIND CMA_PRES HKO_LAT HKO_LON HKO_CAT HKO_WIND HKO_PRES NEWDELHI_LAT NEWDELHI_LON NEWDELHI_GRADE NEWDELHI_WIND NEWDELHI_PRES NEWDELHI_CI NEWDELHI_DP NEWDELHI_POCI REUNION_LAT REUNION_LON REUNION_TYPE REUNION_WIND REUNION_PRES REUNION_TNUM REUNION_CI REUNION_RMW REUNION_R34_NE REUNION_R34_SE REUNION_R34_SW REUNION_R34_NW REUNION_R50_NE REUNION_R50_SE REUNION_R50_SW REUNION_R50_NW REUNION_R64_NE REUNION_R64_SE REUNION_R64_SW REUNION_R64_NW BOM_LAT BOM_LON BOM_TYPE BOM_WIND BOM_PRES BOM_TNUM BOM_CI BOM_RMW BOM_R34_NE BOM_R34_SE BOM_R34_SW BOM_R34_NW BOM_R50_NE BOM_R50_SE BOM_R50_SW BOM_R50_NW BOM_R64_NE BOM_R64_SE BOM_R64_SW BOM_R64_NW BOM_ROCI BOM_POCI BOM_EYE BOM_POS_METHOD BOM_PRES_METHOD NADI_LAT NADI_LON NADI_CAT NADI_WIND NADI_PRES WELLINGTON_LAT WELLINGTON_LON WELLINGTON_WIND WELLINGTON_PRES DS824_LAT DS824_LON DS824_STAGE DS824_WIND DS824_PRES TD9636_LAT TD9636_LON TD9636_STAGE TD9636_WIND TD9636_PRES TD9635_LAT TD9635_LON TD9635_WIND TD9635_PRES TD9635_ROCI NEUMANN_LAT NEUMANN_LON NEUMANN_CLASS NEUMANN_WIND NEUMANN_PRES MLC_LAT MLC_LON MLC_CLASS MLC_WIND MLC_PRES USA_GUST BOM_GUST BOM_GUST_PER REUNION_GUST REUNION_GUST_PER USA_SEAHGT USA_SEARAD_NE USA_SEARAD_SE USA_SEARAD_SW USA_SEARAD_NW STORM_SPEED STORM_DIR
1862345S07090 1863 31 SI WA NOT_NAMED 1862-12-11 06:00:00 NR -6.80000 90.2000 main 1121 1121 _____O________ -1 -6.80000 90.2000 99 9.90000 6 246
1862345S07090 1863 31 SI MM NOT_NAMED 1862-12-11 09:00:00 NR -6.91936 89.9314 main 1156 1156 _____P________ -1 -6.91936 89.9314 99 6 246
1862345S07090 1863 31 SI MM NOT_NAMED 1862-12-11 12:00:00 NR -7.03798 89.6632 main 1180 1180 _____P________ -1 -7.03798 89.6632 99 6 246
1862345S07090 1863 31 SI MM NOT_NAMED 1862-12-11 15:00:00 NR -7.15524 89.3961 main 1220 1220 _____P________ -1 -7.15524 89.3961 99 6 246
1862345S07090 1863 31 SI MM NOT_NAMED 1862-12-11 18:00:00 NR -7.27054 89.1308 main 1255 1255 _____P________ -1 -7.27054 89.1308 99 6 246
1862345S07090 1863 31 SI MM NOT_NAMED 1862-12-11 21:00:00 NR -7.38326 88.8679 main 1279 1279 _____P________ -1 -7.38326 88.8679 99 6 247
1862345S07090 1863 31 SI MM NOT_NAMED 1862-12-12 00:00:00 NR -7.49281 88.6080 main 1314 1314 _____P________ -1 -7.49281 88.6080 99 6 247
1862345S07090 1863 31 SI MM NOT_NAMED 1862-12-12 03:00:00 NR -7.59859 88.3519 main 1338 1338 _____P________ -1 -7.59859 88.3519 99 5 248
1862345S07090 1863 31 SI MM NOT_NAMED 1862-12-12 06:00:00 NR -7.70000 88.1000 main 1373 1373 _____O________ -1 -7.70000 88.1000 99 9.90000 5 248
1862345S07090 1863 31 SI MM NOT_NAMED 1862-12-12 09:00:00 NR -7.79726 87.8529 main 1398 1398 _____P________ -1 -7.79726 87.8529 99 5 248
1862345S07090 1863 31 SI MM NOT_NAMED 1862-12-12 12:00:00 NR -7.89386 87.6100 main 1432 1432 _____P________ -1 -7.89386 87.6100 99 5 248
1862345S07090 1863 31 SI MM NOT_NAMED 1862-12-12 15:00:00 NR -7.99409 87.3706 main 1457 1457 _____P________ -1 -7.99409 87.3706 99 5 246
1862345S07090 1863 31 SI MM NOT_NAMED 1862-12-12 18:00:00 NR -8.10224 87.1340 main 1491 1491 _____P________ -1 -8.10224 87.1340 99 5 244
1862345S07090 1863 31 SI MM NOT_NAMED 1862-12-12 21:00:00 NR -8.22261 86.8994 main 1515 1515 _____P________ -1 -8.22261 86.8994 99 5 241
1862345S07090 1863 31 SI MM NOT_NAMED 1862-12-13 00:00:00 NR -8.35950 86.6660 main 1546 1546 _____P________ -1 -8.35950 86.6660 99 5 237
1862345S07090 1863 31 SI MM NOT_NAMED 1862-12-13 03:00:00 NR -8.51719 86.4332 main 1580 1580 _____P________ -1 -8.51719 86.4332 99 6 234
1862345S07090 1863 31 SI MM NOT_NAMED 1862-12-13 06:00:00 NR -8.70000 86.2000 main 1610 1610 _____O________ -1 -8.70000 86.2000 99 9.90000 6 230
1862345S07090 1863 31 SI MM NOT_NAMED 1862-12-13 09:00:00 NR -8.92694 85.9419 main 1650 1650 _____P________ -1 -8.92694 85.9419 99 7 227
1862345S07090 1863 31 SI MM NOT_NAMED 1862-12-13 12:00:00 NR -9.18017 85.6811 main 1685 1685 _____P________ -1 -9.18017 85.6811 99 7 224
1862345S07090 1863 31 SI MM NOT_NAMED 1862-12-13 15:00:00 NR -9.45340 85.4220 main 1731 1731 _____P________ -1 -9.45340 85.4220 99 8 222
1862345S07090 1863 31 SI MM NOT_NAMED 1862-12-13 18:00:00 NR -9.74034 85.1687 main 1761 1761 _____P________ -1 -9.74034 85.1687 99 8 220
1862345S07090 1863 31 SI MM NOT_NAMED 1862-12-13 21:00:00 NR -10.0347 84.9255 main 1806 1806 _____P________ -1 -10.0347 84.9255 99 8 218
1862345S07090 1863 31 SI MM NOT_NAMED 1862-12-14 00:00:00 NR -10.3303 84.6967 main 1842 1842 _____P________ -1 -10.3303 84.6967 99 7 216
1862345S07090 1863 31 SI MM NOT_NAMED 1862-12-14 03:00:00 NR -10.6208 84.4868 main 1878 1878 _____P________ -1 -10.6208 84.4868 99 7 214
1862345S07090 1863 31 SI MM NOT_NAMED 1862-12-14 06:00:00 NR -10.9000 84.3000 main 1914 1914 _____O________ -1 -10.9000 84.3000 99 9.90000 6 213
1862345S07090 1863 31 SI MM NOT_NAMED 1862-12-14 09:00:00 NR -11.1338 84.1445 main 1943 1943 _____P________ -1 -11.1338 84.1445 99 5 212
1862345S07090 1863 31 SI MM NOT_NAMED 1862-12-14 12:00:00 NR -11.3580 84.0119 main 1971 1971 _____P________ -1 -11.3580 84.0119 99 5 209
1862345S07090 1863 31 SI MM NOT_NAMED 1862-12-14 15:00:00 NR -11.5762 83.8987 main 1993 1993 _____P________ -1 -11.5762 83.8987 99 5 205
1862345S07090 1863 31 SI MM NOT_NAMED 1862-12-14 18:00:00 NR -11.7920 83.8014 main 2014 2014 _____P________ -1 -11.7920 83.8014 99 5 202
1862345S07090 1863 31 SI MM NOT_NAMED 1862-12-14 21:00:00 NR -12.0087 83.7164 main 2034 2034 _____P________ -1 -12.0087 83.7164 99 5 200
1862345S07090 1863 31 SI MM NOT_NAMED 1862-12-15 00:00:00 NR -12.2300 83.6402 main 2054 2054 _____P________ -1 -12.2300 83.6402 99 5 198
1862345S07090 1863 31 SI MM NOT_NAMED 1862-12-15 03:00:00 NR -12.4593 83.5693 main 2076 2076 _____P________ -1 -12.4593 83.5693 99 5 196
1862345S07090 1863 31 SI MM NOT_NAMED 1862-12-15 06:00:00 NR -12.7000 83.5000 main 2097 2097 _____O________ -1 -12.7000 83.5000 99 9.90000 5 198
1862345S07090 1863 31 SI MM NOT_NAMED 1862-12-15 09:00:00 NR -12.9719 83.4043 main 2125 2125 _____P________ -1 -12.9719 83.4043 99 6 198
1862345S07090 1863 31 SI MM NOT_NAMED 1862-12-15 12:00:00 NR -13.2553 83.3115 main 2154 2154 _____P________ -1 -13.2553 83.3115 99 6 197
1862345S07090 1863 31 SI MM NOT_NAMED 1862-12-15 15:00:00 NR -13.5467 83.2230 main 2176 2176 _____P________ -1 -13.5467 83.2230 99 6 196
1862345S07090 1863 31 SI MM NOT_NAMED 1862-12-15 18:00:00 NR -13.8425 83.1404 main 2204 2204 _____P________ -1 -13.8425 83.1404 99 6 194
1862345S07090 1863 31 SI MM NOT_NAMED 1862-12-15 21:00:00 NR -14.1393 83.0653 main 2224 2224 _____P________ -1 -14.1393 83.0653 99 6 193
1862345S07090 1863 31 SI MM NOT_NAMED 1862-12-16 00:00:00 NR -14.4335 82.9991 main 2253 2253 _____P________ -1 -14.4335 82.9991 99 6 192
1862345S07090 1863 31 SI MM NOT_NAMED 1862-12-16 03:00:00 NR -14.7215 82.9435 main 2283 2283 _____P________ -1 -14.7215 82.9435 99 6 190
1862345S07090 1863 31 SI MM NOT_NAMED 1862-12-16 06:00:00 NR -15.0000 82.9000 main 2303 2303 _____O________ -1 -15.0000 82.9000 99 9.90000 6 187
1862345S07090 1863 31 SI MM NOT_NAMED 1862-12-16 09:00:00 NR -15.2662 82.8697 main 2325 2325 _____P________ -1 -15.2662 82.8697 99 5 184
1862345S07090 1863 31 SI MM NOT_NAMED 1862-12-16 12:00:00 NR -15.5209 82.8515 main 2339 2339 _____P________ -1 -15.5209 82.8515 99 5 0
1862345S07090 1863 31 SI MM NOT_NAMED 1862-12-16 15:00:00 NR -15.7657 82.8436 main 2369 2369 _____P________ -1 -15.7657 82.8436 99 5 0
1862345S07090 1863 31 SI MM NOT_NAMED 1862-12-16 18:00:00 NR -16.0024 82.8444 main 2383 2383 _____P________ -1 -16.0024 82.8444 99 5 0
1862345S07090 1863 31 SI MM NOT_NAMED 1862-12-16 21:00:00 NR -16.2325 82.8522 main 2390 2390 _____P________ -1 -16.2325 82.8522 99 5 0
1862345S07090 1863 31 SI MM NOT_NAMED 1862-12-17 00:00:00 NR -16.4578 82.8652 main 2412 2412 _____P________ -1 -16.4578 82.8652 99 5 174
1862345S07090 1863 31 SI MM NOT_NAMED 1862-12-17 03:00:00 NR -16.6797 82.8817 main 2427 2427 _____P________ -1 -16.6797 82.8817 99 4 175
1862345S07090 1863 31 SI MM NOT_NAMED 1862-12-17 06:00:00 NR -16.9000 82.9000 main 2442 _____O________ -1 -16.9000 82.9000 99 9.90000 4 0

IBTrACS Databaseについて

本データベースは、米国NOAAが公開する1842年以降の世界の熱帯低気圧のベストトラックデータアーカイブInternational Best Track Archive for Climate Stewardship (IBTrACS)を、ウェブで閲覧しやすい形式に変換したものです。

最終更新日:2021-11-26